createdAt,value
2023-03-20T00:00:51.384Z,22.35
2023-03-20T00:03:19.764Z,25.33
2023-03-20T00:05:46.713Z,30.08
2023-03-20T00:08:14.195Z,28.77
2023-03-20T00:10:43.740Z,25.70
2023-03-20T00:13:26.322Z,20.00
2023-03-20T00:15:53.711Z,28.50
2023-03-20T00:18:23.156Z,23.92
2023-03-20T00:20:51.237Z,29.05
2023-03-20T00:23:18.220Z,25.10
2023-03-20T00:25:46.778Z,27.27
2023-03-20T00:28:36.642Z,23.33
2023-03-20T00:31:04.544Z,24.13
2023-03-20T00:33:31.587Z,30.20
2023-03-20T00:35:59.209Z,25.80
2023-03-20T00:38:26.436Z,22.73
2023-03-20T00:40:53.332Z,15.63
2023-03-20T00:43:20.157Z,25.42
2023-03-20T00:45:47.154Z,24.38
2023-03-20T00:48:18.828Z,27.15
2023-03-20T00:50:46.269Z,17.70
2023-03-20T00:53:13.221Z,19.38
2023-03-20T00:55:41.291Z,22.67
2023-03-20T00:58:11.540Z,15.95
2023-03-20T01:03:21.521Z,21.40
2023-03-20T01:05:50.121Z,21.20
2023-03-20T01:08:20.387Z,27.00
2023-03-20T01:10:49.832Z,25.58
2023-03-20T01:13:29.492Z,24.60
2023-03-20T01:16:00.542Z,21.13
2023-03-20T01:18:27.790Z,27.88
2023-03-20T01:20:54.607Z,18.75
2023-03-20T01:23:26.757Z,24.23
2023-03-20T01:25:53.582Z,24.77
2023-03-20T01:28:23.863Z,24.40
2023-03-20T01:30:51.369Z,24.65
2023-03-20T01:33:30.364Z,27.13
2023-03-20T01:36:02.070Z,35.30
2023-03-20T01:38:31.304Z,31.75
2023-03-20T01:41:07.130Z,42.70
2023-03-20T01:43:37.470Z,35.63
2023-03-20T01:46:25.864Z,34.95
2023-03-20T01:51:42.797Z,29.92
2023-03-20T01:54:22.249Z,36.35
2023-03-20T01:57:00.493Z,31.40
2023-03-20T01:59:36.953Z,27.17
2023-03-20T02:02:10.472Z,27.52
2023-03-20T02:04:49.446Z,21.80
2023-03-20T02:07:20.341Z,21.70
2023-03-20T02:09:49.427Z,29.58
2023-03-20T02:12:17.687Z,29.75
2023-03-20T02:14:47.083Z,24.50
2023-03-20T02:17:14.366Z,18.65
2023-03-20T02:20:06.134Z,23.42
2023-03-20T02:23:03.879Z,23.20
2023-03-20T02:25:49.808Z,23.98
2023-03-20T02:28:35.124Z,26.67
2023-03-20T02:31:11.151Z,22.20
2023-03-20T02:33:56.704Z,26.77
2023-03-20T02:36:28.151Z,22.33
2023-03-20T02:39:19.390Z,25.80
2023-03-20T02:42:03.487Z,25.70
2023-03-20T02:44:36.522Z,21.95
2023-03-20T02:47:06.549Z,19.90
2023-03-20T02:50:00.862Z,24.88
2023-03-20T02:52:49.535Z,24.13
2023-03-20T02:55:44.232Z,23.15
2023-03-20T02:58:30.852Z,22.75
2023-03-20T03:01:22.580Z,22.88
2023-03-20T03:04:08.925Z,30.17
2023-03-20T03:06:42.673Z,27.48
2023-03-20T03:09:20.454Z,18.48
2023-03-20T03:11:59.752Z,25.80
2023-03-20T03:14:44.316Z,26.27
2023-03-20T03:17:13.828Z,22.33
2023-03-20T03:19:46.529Z,24.70
2023-03-20T03:22:14.143Z,22.02
2023-03-20T03:24:48.821Z,22.83
2023-03-20T03:27:21.429Z,27.50
2023-03-20T03:29:54.098Z,29.83
2023-03-20T03:32:31.817Z,20.08
2023-03-20T03:35:01.684Z,29.20
2023-03-20T03:37:43.263Z,25.73
2023-03-20T03:40:23.646Z,26.40
2023-03-20T03:43:29.351Z,29.88
2023-03-20T03:46:00.414Z,27.15
2023-03-20T03:48:35.082Z,17.60
2023-03-20T03:51:16.741Z,18.35
2023-03-20T03:53:49.880Z,18.75
2023-03-20T03:56:22.033Z,26.63
2023-03-20T03:58:52.738Z,26.52
2023-03-20T04:01:22.889Z,24.52
2023-03-20T04:03:57.644Z,22.20
2023-03-20T04:06:26.922Z,21.77
2023-03-20T04:08:53.889Z,29.33
2023-03-20T04:11:24.241Z,20.67
2023-03-20T04:13:52.352Z,33.70
2023-03-20T04:16:23.152Z,21.48
2023-03-20T04:18:50.628Z,22.55
2023-03-20T04:21:18.683Z,25.75
2023-03-20T04:23:46.095Z,25.02
2023-03-20T04:26:13.392Z,30.58
2023-03-20T04:28:40.257Z,25.52
2023-03-20T04:31:07.539Z,18.70
2023-03-20T04:33:34.580Z,25.58
2023-03-20T04:36:01.618Z,25.35
2023-03-20T04:38:28.465Z,21.77
2023-03-20T04:40:55.403Z,19.35
2023-03-20T04:43:23.172Z,24.38
2023-03-20T04:45:50.010Z,29.48
2023-03-20T04:48:16.869Z,23.63
2023-03-20T04:50:48.284Z,23.55
2023-03-20T04:53:16.355Z,25.23
2023-03-20T04:55:46.412Z,21.67
2023-03-20T04:58:15.345Z,24.13
2023-03-20T05:00:42.482Z,21.75
2023-03-20T05:03:09.417Z,26.52
2023-03-20T05:05:38.143Z,25.58
2023-03-20T05:08:06.613Z,23.08
2023-03-20T05:10:33.712Z,22.35
2023-03-20T05:13:01.363Z,32.33
2023-03-20T05:15:28.429Z,25.60
2023-03-20T05:17:55.579Z,29.73
2023-03-20T05:20:24.258Z,26.15
2023-03-20T05:22:51.491Z,29.85
2023-03-20T05:25:18.569Z,30.20
2023-03-20T05:27:48.115Z,37.30
2023-03-20T05:30:15.490Z,20.00
2023-03-20T05:32:43.790Z,22.40
2023-03-20T05:35:11.896Z,26.27
2023-03-20T05:37:39.481Z,24.05
2023-03-20T05:40:07.298Z,20.45
2023-03-20T05:42:34.432Z,28.45
2023-03-20T05:45:01.434Z,27.05
2023-03-20T05:47:28.334Z,33.45
2023-03-20T05:49:55.596Z,26.10
2023-03-20T05:52:23.223Z,28.60
2023-03-20T05:54:50.301Z,31.98
2023-03-20T05:57:17.696Z,27.58
2023-03-20T05:59:44.605Z,40.25
2023-03-20T06:02:12.366Z,20.17
2023-03-20T06:04:39.926Z,27.92
2023-03-20T06:07:07.724Z,17.58
2023-03-20T06:09:34.658Z,26.05
2023-03-20T06:12:01.537Z,21.60
2023-03-20T06:14:28.403Z,25.52
2023-03-20T06:16:57.093Z,18.65
2023-03-20T06:19:24.272Z,21.00
2023-03-20T06:21:51.463Z,19.25
2023-03-20T06:24:18.695Z,15.13
2023-03-20T06:26:45.573Z,23.88
2023-03-20T06:29:12.542Z,19.35
2023-03-20T06:31:39.620Z,20.67
2023-03-20T06:34:06.581Z,18.13
2023-03-20T06:36:33.680Z,30.20
2023-03-20T06:39:01.070Z,23.63
2023-03-20T06:41:34.661Z,19.48
2023-03-20T06:44:03.746Z,16.38
2023-03-20T06:46:30.819Z,17.10
2023-03-20T06:48:57.775Z,23.13
2023-03-20T06:51:24.701Z,21.50
2023-03-20T06:53:51.534Z,24.15
2023-03-20T06:56:18.486Z,28.73
2023-03-20T06:58:45.902Z,21.95
2023-03-20T07:01:16.726Z,17.38
2023-03-20T07:03:45.181Z,22.80
2023-03-20T07:06:13.640Z,21.05
2023-03-20T07:08:44.799Z,21.15
2023-03-20T07:11:12.071Z,25.77
2023-03-20T07:13:39.035Z,18.40
2023-03-20T07:16:07.497Z,17.55
2023-03-20T07:18:34.614Z,18.98
2023-03-20T07:21:03.894Z,16.33
2023-03-20T07:23:31.746Z,16.35
2023-03-20T07:25:59.434Z,25.13
2023-03-20T07:28:27.134Z,18.52
2023-03-20T07:30:54.540Z,23.63
2023-03-20T07:33:21.548Z,18.55
2023-03-20T07:35:53.751Z,19.85
2023-03-20T07:38:21.548Z,20.77
2023-03-20T07:40:49.110Z,21.70
2023-03-20T07:43:17.060Z,16.67
2023-03-20T07:45:44.095Z,20.63
2023-03-20T07:48:11.226Z,17.85
2023-03-20T07:50:38.131Z,22.35
2023-03-20T07:53:04.956Z,19.23
2023-03-20T07:55:31.784Z,21.52
2023-03-20T07:57:58.677Z,17.58
2023-03-20T08:00:28.052Z,18.50
2023-03-20T08:02:57.104Z,14.23
2023-03-20T08:05:24.440Z,14.38
2023-03-20T08:07:51.538Z,14.18
2023-03-20T08:10:18.741Z,16.45
2023-03-20T08:12:45.769Z,17.33
2023-03-20T08:15:13.387Z,20.85
2023-03-20T08:17:47.045Z,22.05
2023-03-20T08:20:16.298Z,16.80
2023-03-20T08:22:45.032Z,13.57
2023-03-20T08:25:12.181Z,22.17
2023-03-20T08:27:39.054Z,15.07
2023-03-20T08:30:06.653Z,18.73
2023-03-20T08:32:33.701Z,20.40
2023-03-20T08:35:00.797Z,15.95
2023-03-20T08:37:28.488Z,28.27
2023-03-20T08:39:55.589Z,14.60
2023-03-20T08:42:22.655Z,26.42
2023-03-20T08:44:49.625Z,20.13
2023-03-20T08:47:16.678Z,21.23
2023-03-20T08:49:44.049Z,17.50
2023-03-20T08:52:11.264Z,17.50
2023-03-20T08:54:38.233Z,15.43
2023-03-20T08:57:05.328Z,17.08
2023-03-20T08:59:33.146Z,14.35
2023-03-20T09:02:00.543Z,11.95
2023-03-20T09:04:28.018Z,18.85
2023-03-20T09:06:55.455Z,14.90
2023-03-20T09:09:27.405Z,14.18
2023-03-20T09:11:54.191Z,17.17
2023-03-20T09:14:21.159Z,16.83
2023-03-20T09:16:48.074Z,16.35
2023-03-20T09:19:15.417Z,15.68
2023-03-20T09:21:42.372Z,13.45
2023-03-20T09:24:09.603Z,11.90
2023-03-20T09:26:36.846Z,21.17
2023-03-20T09:29:03.987Z,17.80
2023-03-20T09:31:30.986Z,19.10
2023-03-20T09:33:57.895Z,16.33
2023-03-20T09:36:24.662Z,19.92
2023-03-20T09:38:51.813Z,13.80
2023-03-20T09:41:22.786Z,16.40
2023-03-20T09:43:59.051Z,18.25
2023-03-20T09:47:08.725Z,12.07
2023-03-20T09:50:22.338Z,17.98
2023-03-20T09:53:10.806Z,13.52
2023-03-20T09:55:41.694Z,17.27
2023-03-20T09:58:26.135Z,10.75
2023-03-20T10:00:58.364Z,13.55
2023-03-20T10:03:42.085Z,17.17
2023-03-20T10:06:18.012Z,15.75
2023-03-20T10:08:46.347Z,19.08
2023-03-20T10:11:34.430Z,17.55
2023-03-20T10:14:21.881Z,19.80
2023-03-20T10:17:10.111Z,13.57
2023-03-20T10:19:45.893Z,14.50
2023-03-20T10:22:26.248Z,19.88
2023-03-20T10:25:01.430Z,11.93
2023-03-20T10:27:47.121Z,17.92
2023-03-20T10:30:32.675Z,18.85
2023-03-20T10:33:26.889Z,21.83
2023-03-20T10:36:16.006Z,18.10
2023-03-20T10:39:03.078Z,20.15
2023-03-20T10:41:33.766Z,28.55
2023-03-20T10:44:02.484Z,23.27
2023-03-20T10:46:35.739Z,20.42
2023-03-20T10:49:27.237Z,14.10
2023-03-20T10:52:02.542Z,16.27
2023-03-20T10:54:46.095Z,22.98
2023-03-20T10:57:32.018Z,20.85
2023-03-20T10:59:59.703Z,16.40
2023-03-20T11:02:30.790Z,23.80
2023-03-20T11:05:01.913Z,16.70
2023-03-20T11:07:33.180Z,20.38
2023-03-20T11:10:10.372Z,15.23
2023-03-20T11:12:42.360Z,20.05
2023-03-20T11:15:33.138Z,17.25
2023-03-20T11:18:01.442Z,19.85
2023-03-20T11:20:38.451Z,20.90
2023-03-20T11:23:08.538Z,18.13
2023-03-20T11:25:39.726Z,20.17
2023-03-20T11:28:28.536Z,21.88
2023-03-20T11:31:14.643Z,22.90
2023-03-20T11:34:04.981Z,22.13
2023-03-20T11:36:34.800Z,19.98
2023-03-20T11:39:14.974Z,19.52
2023-03-20T11:41:48.120Z,24.77
2023-03-20T11:44:28.243Z,22.95
2023-03-20T11:46:56.767Z,14.95
2023-03-20T11:49:26.134Z,23.90
2023-03-20T11:51:53.827Z,19.83
2023-03-20T11:54:23.640Z,24.48
2023-03-20T11:56:59.226Z,20.92
2023-03-20T11:59:35.100Z,17.13
2023-03-20T12:02:05.075Z,28.38
2023-03-20T12:04:37.786Z,22.90
2023-03-20T12:07:12.715Z,24.33
2023-03-20T12:09:55.074Z,23.95
2023-03-20T12:12:41.321Z,23.38
2023-03-20T12:15:32.138Z,28.83
2023-03-20T12:18:25.242Z,17.98
2023-03-20T12:20:58.265Z,20.85
2023-03-20T12:23:43.831Z,31.13
2023-03-20T12:26:14.964Z,24.90
2023-03-20T12:28:53.891Z,18.27
2023-03-20T12:31:24.054Z,20.65
2023-03-20T12:34:04.452Z,23.63
2023-03-20T12:36:39.194Z,21.27
2023-03-20T12:39:24.795Z,21.45
2023-03-20T12:42:00.872Z,29.60
2023-03-20T12:44:47.443Z,20.63
2023-03-20T12:47:44.948Z,23.17
2023-03-20T12:50:34.937Z,18.88
2023-03-20T12:53:13.896Z,19.15
2023-03-20T12:56:05.194Z,15.73
2023-03-20T12:59:13.937Z,14.95
2023-03-20T13:01:55.733Z,16.27
2023-03-20T13:05:15.481Z,18.90
2023-03-20T13:08:08.743Z,20.30
2023-03-20T13:10:40.030Z,17.65
2023-03-20T13:13:07.167Z,13.65
2023-03-20T13:15:57.159Z,14.35
2023-03-20T13:18:34.267Z,14.20
2023-03-20T13:21:09.255Z,20.90
2023-03-20T13:24:14.024Z,17.27
2023-03-20T13:26:55.577Z,17.35
2023-03-20T13:29:38.262Z,14.93
2023-03-20T13:32:10.348Z,22.95
2023-03-20T13:34:55.084Z,14.77
2023-03-20T13:37:36.168Z,23.23
2023-03-20T13:40:06.283Z,15.18
2023-03-20T13:42:45.975Z,19.10
2023-03-20T13:45:45.619Z,16.65
2023-03-20T13:48:33.418Z,15.95
2023-03-20T13:51:17.920Z,24.77
2023-03-20T13:53:44.994Z,19.92
2023-03-20T13:56:38.588Z,13.32
2023-03-20T13:59:22.917Z,23.65
2023-03-20T14:02:02.281Z,22.75
2023-03-20T14:04:31.922Z,15.23
2023-03-20T14:06:59.950Z,14.90
2023-03-20T14:09:30.060Z,20.00
2023-03-20T14:12:11.465Z,14.38
2023-03-20T14:14:52.611Z,16.88
2023-03-20T14:17:24.983Z,18.33
2023-03-20T14:19:53.931Z,19.85
2023-03-20T14:22:30.058Z,16.08
2023-03-20T14:25:07.480Z,16.00
2023-03-20T14:27:57.892Z,23.98
2023-03-20T14:30:30.990Z,15.73
2023-03-20T14:33:11.879Z,15.20
2023-03-20T14:35:43.398Z,11.13
2023-03-20T14:38:29.057Z,14.50
2023-03-20T14:41:14.112Z,23.30
2023-03-20T14:43:56.822Z,13.93
2023-03-20T14:46:42.707Z,22.23
2023-03-20T14:49:35.684Z,17.70
2023-03-20T14:52:38.993Z,17.67
2023-03-20T14:55:28.475Z,23.25
2023-03-20T14:57:57.309Z,15.63
2023-03-20T15:00:30.905Z,13.18
2023-03-20T15:03:10.672Z,14.38
2023-03-20T15:05:39.671Z,22.65
2023-03-20T15:08:15.948Z,16.42
2023-03-20T15:10:51.199Z,18.55
2023-03-20T15:13:18.544Z,17.90
2023-03-20T15:15:53.281Z,13.80
2023-03-20T15:18:21.826Z,15.60
2023-03-20T15:20:49.261Z,15.85
2023-03-20T15:23:16.165Z,18.85
2023-03-20T15:25:48.608Z,20.52
2023-03-20T15:28:22.617Z,23.42
2023-03-20T15:30:53.630Z,18.90
2023-03-20T15:33:45.747Z,19.65
2023-03-20T15:36:26.382Z,19.77
2023-03-20T15:38:53.903Z,21.52
2023-03-20T15:41:30.684Z,24.02
2023-03-20T15:44:28.321Z,29.55
2023-03-20T15:47:11.639Z,24.80
2023-03-20T15:49:41.260Z,17.52
2023-03-20T15:52:18.376Z,23.02
2023-03-20T15:54:46.061Z,29.48
2023-03-20T15:57:47.276Z,23.85
2023-03-20T16:00:16.982Z,35.97
2023-03-20T16:02:48.553Z,34.67
2023-03-20T16:05:17.702Z,23.17
2023-03-20T16:07:44.606Z,12.68
2023-03-20T16:10:20.249Z,10.57
2023-03-20T16:12:53.068Z,20.48
2023-03-20T16:15:21.130Z,20.05
2023-03-20T16:17:53.788Z,10.60
2023-03-20T16:20:22.482Z,10.07
2023-03-20T16:22:51.458Z,12.65
2023-03-20T16:25:19.137Z,10.50
2023-03-20T16:27:49.183Z,8.77
2023-03-20T16:30:27.073Z,11.23
2023-03-20T16:33:07.084Z,7.55
2023-03-20T16:35:45.222Z,11.30
2023-03-20T16:38:30.167Z,14.07
2023-03-20T16:41:15.020Z,12.32
2023-03-20T16:43:49.551Z,9.07
2023-03-20T16:46:24.916Z,12.57
2023-03-20T16:48:56.670Z,13.60
2023-03-20T16:51:26.550Z,8.48
2023-03-20T16:53:59.390Z,14.05
2023-03-20T16:56:52.968Z,12.90
2023-03-20T16:59:20.646Z,10.45
2023-03-20T17:01:48.616Z,10.98
2023-03-20T17:04:29.481Z,14.73
2023-03-20T17:07:00.475Z,10.85
2023-03-20T17:09:31.939Z,9.80
2023-03-20T17:12:04.955Z,19.40
2023-03-20T17:14:32.185Z,21.30
2023-03-20T17:17:00.320Z,12.18
2023-03-20T17:19:27.405Z,12.15
2023-03-20T17:21:54.713Z,13.10
2023-03-20T17:24:21.754Z,10.48
2023-03-20T17:26:55.266Z,16.38
2023-03-20T17:29:22.403Z,8.25
2023-03-20T17:31:49.494Z,12.90
2023-03-20T17:34:16.549Z,7.43
2023-03-20T17:36:43.569Z,8.40
2023-03-20T17:39:21.064Z,11.45
2023-03-20T17:41:48.012Z,11.23
2023-03-20T17:44:15.016Z,5.72
2023-03-20T17:46:56.751Z,9.13
2023-03-20T17:49:27.944Z,8.48
2023-03-20T17:51:55.870Z,9.98
2023-03-20T17:54:22.726Z,9.60
2023-03-20T17:56:49.581Z,10.88
2023-03-20T17:59:16.518Z,7.97
2023-03-20T18:01:43.502Z,7.10
2023-03-20T18:04:10.649Z,8.32
2023-03-20T18:06:47.713Z,8.80
2023-03-20T18:09:15.429Z,11.35
2023-03-20T18:11:42.264Z,18.75
2023-03-20T18:14:12.447Z,9.68
2023-03-20T18:16:39.740Z,8.45
2023-03-20T18:19:06.645Z,12.13
2023-03-20T18:21:33.529Z,9.32
2023-03-20T18:24:00.564Z,9.02
2023-03-20T18:26:28.311Z,12.10
2023-03-20T18:28:56.194Z,18.50
2023-03-20T18:31:23.420Z,21.27
2023-03-20T18:33:52.134Z,19.23
2023-03-20T18:36:22.324Z,13.45
2023-03-20T18:38:49.974Z,16.02
2023-03-20T18:41:17.256Z,18.73
2023-03-20T18:43:46.620Z,13.88
2023-03-20T18:46:18.904Z,17.85
2023-03-20T18:48:46.658Z,14.02
2023-03-20T18:51:14.408Z,22.17
2023-03-20T18:53:41.957Z,14.80
2023-03-20T18:56:16.236Z,18.08
2023-03-20T18:58:44.484Z,13.60
2023-03-20T19:01:13.020Z,15.23
2023-03-20T19:03:42.764Z,20.75
2023-03-20T19:06:18.531Z,17.35
2023-03-20T19:08:46.376Z,18.17
2023-03-20T19:11:19.705Z,21.98
2023-03-20T19:13:52.372Z,17.80
2023-03-20T19:16:31.820Z,17.95
2023-03-20T19:19:01.651Z,19.40
2023-03-20T19:21:30.761Z,17.60
2023-03-20T19:23:59.828Z,16.23
2023-03-20T19:26:29.200Z,17.05
2023-03-20T19:28:58.829Z,18.77
2023-03-20T19:31:27.128Z,16.50
2023-03-20T19:33:56.214Z,17.80
2023-03-20T19:36:30.918Z,17.05
2023-03-20T19:38:59.976Z,16.63
2023-03-20T19:41:28.941Z,13.77
2023-03-20T19:43:56.979Z,17.45
2023-03-20T19:46:41.871Z,16.85
2023-03-20T19:49:20.991Z,16.52
2023-03-20T19:51:49.076Z,13.90
2023-03-20T19:54:16.351Z,22.30
2023-03-20T19:56:43.399Z,20.95
2023-03-20T19:59:10.424Z,15.32
2023-03-20T20:01:37.448Z,12.20
2023-03-20T20:04:29.606Z,19.08
2023-03-20T20:07:26.251Z,16.00
2023-03-20T20:09:43.612Z,18.60
2023-03-20T20:12:10.455Z,17.17
2023-03-20T20:14:37.324Z,23.27
2023-03-20T20:17:05.103Z,16.33
2023-03-20T20:19:32.400Z,14.63
2023-03-20T20:22:24.735Z,18.42
2023-03-20T20:24:46.518Z,20.13
2023-03-20T20:27:17.812Z,14.60
2023-03-20T20:29:49.995Z,22.52
2023-03-20T20:32:19.318Z,22.02
2023-03-20T20:40:25.994Z,17.13
2023-03-20T20:42:56.278Z,15.57
2023-03-20T20:45:31.015Z,14.57
2023-03-20T20:47:59.133Z,19.15
2023-03-20T20:50:29.125Z,16.70
2023-03-20T20:52:56.951Z,16.10
2023-03-20T20:55:24.982Z,15.38
2023-03-20T20:57:55.474Z,15.18
2023-03-20T21:00:41.091Z,17.73
2023-03-20T21:03:13.531Z,14.10
2023-03-20T21:05:43.523Z,15.05
2023-03-20T21:08:12.084Z,19.67
2023-03-20T21:10:39.966Z,23.23
2023-03-20T21:13:08.379Z,18.98
2023-03-20T21:15:35.730Z,13.52
2023-03-20T21:18:03.111Z,14.77
2023-03-20T21:20:31.870Z,16.00
2023-03-20T21:22:59.176Z,16.70
2023-03-20T21:25:39.220Z,19.65
2023-03-20T21:28:08.173Z,22.00
2023-03-20T21:30:36.007Z,19.58
2023-03-20T21:33:03.701Z,19.10
2023-03-20T21:35:30.808Z,19.98
2023-03-20T21:38:53.383Z,22.00
2023-03-20T21:40:45.318Z,24.98
2023-03-20T21:43:12.561Z,32.08
2023-03-20T21:52:24.708Z,21.35
2023-03-20T21:54:56.415Z,22.45
2023-03-20T21:57:27.887Z,26.67
2023-03-20T22:02:28.041Z,22.10
2023-03-20T22:17:08.728Z,19.25
2023-03-20T22:22:57.018Z,17.95
2023-03-20T22:39:12.684Z,18.20
2023-03-20T22:42:09.520Z,20.83
2023-03-20T22:46:54.473Z,17.67
2023-03-20T22:49:21.467Z,23.00
2023-03-20T22:52:05.061Z,15.48
2023-03-20T22:54:35.316Z,17.33
2023-03-20T22:57:02.639Z,20.30
2023-03-20T22:59:29.476Z,15.93
2023-03-20T23:01:56.577Z,17.45
2023-03-20T23:04:24.206Z,20.67
2023-03-20T23:06:51.330Z,17.15
2023-03-20T23:09:32.615Z,27.10
2023-03-20T23:11:59.547Z,23.10
2023-03-20T23:14:28.569Z,19.40
2023-03-20T23:16:57.549Z,21.63
2023-03-20T23:19:25.406Z,19.83
2023-03-20T23:21:52.304Z,19.42
2023-03-20T23:24:20.494Z,21.27
2023-03-20T23:26:47.640Z,15.95
2023-03-20T23:29:14.785Z,18.00
2023-03-20T23:31:41.700Z,15.80
2023-03-20T23:34:08.680Z,19.20
2023-03-20T23:36:37.484Z,15.70
2023-03-20T23:39:10.470Z,16.55
2023-03-20T23:44:25.035Z,12.23
2023-03-20T23:46:51.971Z,15.77
2023-03-20T23:49:18.840Z,23.33
2023-03-20T23:51:46.342Z,17.98
2023-03-20T23:54:13.590Z,17.00
2023-03-20T23:56:40.727Z,16.48
2023-03-20T23:59:20.665Z,18.17
